createdAt,value
2019-03-13T00:01:17.293Z,61.10
2019-03-13T00:03:45.782Z,60.30
2019-03-13T00:06:14.482Z,60.70
2019-03-13T00:08:43.001Z,62.20
2019-03-13T00:11:11.445Z,61.70
2019-03-13T00:13:40.112Z,61.60
2019-03-13T00:16:08.712Z,61.40
2019-03-13T00:18:37.182Z,60.80
2019-03-13T00:21:05.706Z,60.90
2019-03-13T00:23:34.202Z,60.50
2019-03-13T00:26:02.697Z,60.50
2019-03-13T00:28:31.189Z,60.00
2019-03-13T00:30:59.655Z,59.50
2019-03-13T00:33:28.127Z,59.70
2019-03-13T00:35:56.561Z,59.80
2019-03-13T00:38:24.996Z,60.00
2019-03-13T00:40:53.433Z,59.90
2019-03-13T00:43:21.886Z,59.60
2019-03-13T00:45:50.380Z,59.50
2019-03-13T00:48:18.816Z,59.00
2019-03-13T00:50:47.243Z,59.30
2019-03-13T00:53:15.675Z,59.40
2019-03-13T00:55:44.104Z,59.70
2019-03-13T00:58:12.540Z,59.80
2019-03-13T01:00:51.893Z,59.90
2019-03-13T01:03:24.789Z,59.50
2019-03-13T01:06:10.108Z,59.60
2019-03-13T01:08:38.532Z,59.70
2019-03-13T01:11:06.969Z,59.70
2019-03-13T01:13:35.433Z,60.20
2019-03-13T01:16:03.857Z,59.90
2019-03-13T01:18:32.286Z,59.60
2019-03-13T01:21:00.707Z,59.80
2019-03-13T01:23:29.139Z,59.80
2019-03-13T01:25:57.566Z,59.50
2019-03-13T01:28:25.995Z,59.60
2019-03-13T01:30:59.018Z,59.50
2019-03-13T01:33:27.433Z,58.60
2019-03-13T01:35:57.568Z,59.30
2019-03-13T01:38:26.007Z,58.90
2019-03-13T01:40:54.448Z,58.70
2019-03-13T01:43:22.857Z,58.70
2019-03-13T01:45:51.404Z,58.50
2019-03-13T01:48:19.892Z,58.20
2019-03-13T01:50:48.358Z,58.50
2019-03-13T01:53:16.846Z,58.70
2019-03-13T01:55:45.283Z,59.00
2019-03-13T01:58:13.710Z,59.30
2019-03-13T02:00:42.149Z,59.20
2019-03-13T02:03:10.743Z,59.00
2019-03-13T02:05:39.193Z,59.00
2019-03-13T02:08:07.621Z,59.20
2019-03-13T02:10:36.068Z,59.20
2019-03-13T02:13:04.476Z,59.50
2019-03-13T02:15:32.909Z,59.10
2019-03-13T02:18:01.378Z,59.10
2019-03-13T02:20:29.902Z,59.00
2019-03-13T02:22:58.330Z,59.00
2019-03-13T02:25:26.770Z,60.00
2019-03-13T02:27:55.186Z,59.30
2019-03-13T02:30:25.258Z,60.60
2019-03-13T02:32:53.713Z,62.20
2019-03-13T02:35:22.200Z,66.60
2019-03-13T02:37:50.685Z,69.70
2019-03-13T02:40:19.245Z,73.60
2019-03-13T02:42:47.675Z,77.80
2019-03-13T02:45:16.118Z,79.80
2019-03-13T02:47:44.531Z,82.20
2019-03-13T02:50:19.119Z,83.80
2019-03-13T02:52:47.541Z,83.80
2019-03-13T02:55:15.965Z,84.40
2019-03-13T02:57:44.388Z,84.90
2019-03-13T03:00:17.090Z,84.00
2019-03-13T03:02:53.285Z,84.00
2019-03-13T03:05:21.899Z,84.00
2019-03-13T03:07:50.325Z,84.20
2019-03-13T03:10:18.761Z,83.20
2019-03-13T03:12:47.177Z,83.70
2019-03-13T03:15:17.751Z,82.60
2019-03-13T03:17:46.397Z,81.30
2019-03-13T03:20:19.707Z,81.00
2019-03-13T03:22:48.141Z,80.50
2019-03-13T03:25:17.842Z,80.00
2019-03-13T03:32:57.440Z,79.00
2019-03-13T03:35:25.857Z,79.00
2019-03-13T03:37:54.315Z,79.20
2019-03-13T03:40:23.543Z,78.90
2019-03-13T03:42:52.407Z,78.70
2019-03-13T03:45:21.009Z,77.80
2019-03-13T03:47:49.466Z,77.70
2019-03-13T03:50:38.799Z,76.90
2019-03-13T03:53:07.227Z,76.60
2019-03-13T03:55:35.666Z,77.00
2019-03-13T03:58:04.331Z,76.70
2019-03-13T04:00:52.093Z,76.10
2019-03-13T04:03:20.530Z,75.60
2019-03-13T04:05:48.974Z,76.10
2019-03-13T04:08:38.142Z,76.70
2019-03-13T04:11:06.767Z,77.80
2019-03-13T04:13:35.196Z,80.60
2019-03-13T04:16:03.699Z,83.30
2019-03-13T04:18:32.114Z,85.20
2019-03-13T04:21:00.575Z,86.30
2019-03-13T04:23:29.010Z,87.40
2019-03-13T04:25:57.449Z,87.90
2019-03-13T04:28:25.857Z,88.80
2019-03-13T04:30:54.328Z,89.20
2019-03-13T04:33:42.080Z,89.00
2019-03-13T04:36:10.528Z,88.90
2019-03-13T04:38:38.961Z,88.60
2019-03-13T04:41:07.415Z,89.20
2019-03-13T04:43:35.845Z,89.60
2019-03-13T04:46:04.286Z,90.10
2019-03-13T04:48:32.722Z,90.10
2019-03-13T04:51:01.239Z,90.30
2019-03-13T04:53:29.678Z,90.50
2019-03-13T04:55:58.143Z,90.60
2019-03-13T04:58:26.552Z,90.50
2019-03-13T05:00:55.000Z,90.60
2019-03-13T05:03:23.432Z,90.40
2019-03-13T05:05:52.240Z,90.10
2019-03-13T05:08:50.711Z,90.10
2019-03-13T05:11:19.159Z,90.10
2019-03-13T05:13:47.580Z,90.20
2019-03-13T05:16:16.018Z,90.00
2019-03-13T05:18:44.446Z,89.80
2019-03-13T05:21:12.884Z,90.10
2019-03-13T05:23:41.304Z,90.10
2019-03-13T05:26:09.731Z,90.20
2019-03-13T05:28:38.160Z,89.80
2019-03-13T05:31:06.589Z,90.00
2019-03-13T05:33:35.045Z,90.00
2019-03-13T05:36:03.538Z,89.50
2019-03-13T05:38:51.320Z,87.10
2019-03-13T05:41:23.373Z,86.10
2019-03-13T05:43:51.797Z,85.50
2019-03-13T05:46:20.243Z,85.50
2019-03-13T05:48:48.680Z,84.80
2019-03-13T05:51:17.123Z,83.20
2019-03-13T05:53:45.626Z,83.00
2019-03-13T05:56:14.059Z,83.20
2019-03-13T05:58:42.534Z,82.70
2019-03-13T06:01:10.962Z,81.80
2019-03-13T06:03:39.388Z,82.40
2019-03-13T06:06:07.807Z,82.10
2019-03-13T06:08:36.249Z,82.40
2019-03-13T06:11:04.696Z,82.70
2019-03-13T06:13:33.182Z,83.00
2019-03-13T06:16:01.608Z,83.60
2019-03-13T06:18:30.040Z,84.20
2019-03-13T06:20:58.468Z,84.70
2019-03-13T06:23:26.905Z,85.50
2019-03-13T06:25:55.331Z,86.30
2019-03-13T06:28:23.844Z,87.00
2019-03-13T06:30:52.266Z,86.60
2019-03-13T06:33:20.720Z,86.60
2019-03-13T06:35:49.144Z,86.00
2019-03-13T06:38:17.578Z,85.80
2019-03-13T06:40:45.999Z,85.50
2019-03-13T06:43:14.444Z,84.80
2019-03-13T06:45:42.857Z,84.80
2019-03-13T06:48:30.638Z,85.10
2019-03-13T06:50:59.080Z,85.20
2019-03-13T06:53:27.555Z,85.90
2019-03-13T06:55:55.977Z,85.80
2019-03-13T06:58:26.048Z,85.80
2019-03-13T07:01:11.234Z,85.90
2019-03-13T07:03:50.497Z,86.00
2019-03-13T07:09:12.447Z,85.60
2019-03-13T07:11:42.517Z,85.20
2019-03-13T07:14:18.772Z,84.80
2019-03-13T07:16:54.754Z,84.80
2019-03-13T07:19:27.864Z,83.20
2019-03-13T07:21:57.912Z,82.30
2019-03-13T07:24:43.081Z,80.80
2019-03-13T07:27:13.150Z,80.10
2019-03-13T07:30:01.205Z,78.50
2019-03-13T07:32:43.328Z,78.50
2019-03-13T07:35:25.760Z,77.00
2019-03-13T07:38:15.431Z,76.30
2019-03-13T07:40:44.141Z,75.70
2019-03-13T07:43:17.105Z,76.40
2019-03-13T07:46:04.746Z,75.00
2019-03-13T07:48:37.996Z,74.20
2019-03-13T07:51:08.064Z,73.50
2019-03-13T07:53:56.327Z,72.10
2019-03-13T07:56:29.063Z,71.60
2019-03-13T08:02:09.128Z,70.10
2019-03-13T08:04:42.145Z,69.10
2019-03-13T08:07:12.203Z,69.20
2019-03-13T08:09:42.296Z,67.80
2019-03-13T08:12:15.124Z,68.00
2019-03-13T08:15:01.660Z,67.70
2019-03-13T08:17:37.524Z,66.30
2019-03-13T08:20:16.069Z,65.50
2019-03-13T08:23:04.192Z,65.20
2019-03-13T08:25:40.402Z,64.40
2019-03-13T08:28:10.491Z,63.80
2019-03-13T08:30:46.621Z,63.70
2019-03-13T08:33:19.105Z,62.30
2019-03-13T08:36:08.505Z,60.60
2019-03-13T08:39:13.135Z,61.60
2019-03-13T08:41:43.208Z,60.90
2019-03-13T08:44:22.526Z,60.00
2019-03-13T08:46:52.586Z,60.30
2019-03-13T08:49:39.145Z,59.50
2019-03-13T08:52:09.356Z,59.40
2019-03-13T08:54:39.503Z,60.70
2019-03-13T08:57:09.567Z,58.40
2019-03-13T08:59:45.839Z,58.40
2019-03-13T09:02:24.852Z,57.80
2019-03-13T09:04:54.931Z,57.40
2019-03-13T09:07:40.874Z,57.30
2019-03-13T09:10:22.996Z,55.90
2019-03-13T09:13:07.918Z,56.10
2019-03-13T09:15:49.935Z,56.60
2019-03-13T09:18:20.006Z,57.30
2019-03-13T09:20:50.077Z,56.60
2019-03-13T09:23:26.251Z,57.20
2019-03-13T09:26:02.425Z,57.70
2019-03-13T09:28:44.542Z,56.10
2019-03-13T09:31:14.603Z,55.60
2019-03-13T09:33:53.641Z,56.30
2019-03-13T09:36:40.335Z,57.20
2019-03-13T09:39:23.049Z,56.10
2019-03-13T09:42:09.367Z,55.90
2019-03-13T09:44:45.299Z,55.60
2019-03-13T09:47:24.532Z,55.50
2019-03-13T09:50:11.216Z,55.80
2019-03-13T09:52:57.803Z,54.60
2019-03-13T09:55:33.872Z,54.40
2019-03-13T09:58:12.908Z,54.60
2019-03-13T10:00:52.042Z,55.40
2019-03-13T10:03:24.826Z,54.40
2019-03-13T10:06:03.874Z,55.20
2019-03-13T10:08:36.883Z,55.10
2019-03-13T10:11:22.937Z,54.90
2019-03-13T10:13:56.174Z,55.50
2019-03-13T10:16:26.296Z,55.00
2019-03-13T10:19:19.966Z,55.40
2019-03-13T10:21:52.990Z,54.80
2019-03-13T10:24:26.103Z,55.80
2019-03-13T10:26:58.889Z,54.70
2019-03-13T10:29:34.891Z,55.70
2019-03-13T10:32:11.165Z,55.30
2019-03-13T10:34:46.922Z,56.00
2019-03-13T10:37:17.070Z,54.50
2019-03-13T10:40:05.116Z,55.10
2019-03-13T10:42:43.890Z,55.10
2019-03-13T10:45:19.945Z,56.10
2019-03-13T10:47:50.016Z,54.60
2019-03-13T10:50:20.087Z,54.20
2019-03-13T10:52:50.166Z,54.50
2019-03-13T10:55:20.258Z,54.40
2019-03-13T10:57:56.541Z,55.40
2019-03-13T11:00:39.076Z,54.10
2019-03-13T11:03:15.214Z,54.60
2019-03-13T11:06:01.537Z,55.00
2019-03-13T11:08:40.687Z,54.50
2019-03-13T11:11:10.845Z,54.10
2019-03-13T11:13:40.981Z,52.40
2019-03-13T11:16:13.768Z,53.40
2019-03-13T11:19:00.515Z,54.00
2019-03-13T11:21:30.586Z,54.00
2019-03-13T11:24:03.315Z,54.10
2019-03-13T11:26:36.442Z,54.60
2019-03-13T11:29:09.457Z,54.30
2019-03-13T11:32:00.545Z,54.80
2019-03-13T11:37:37.417Z,56.10
2019-03-13T11:40:16.420Z,55.90
2019-03-13T11:42:46.518Z,56.50
2019-03-13T11:45:16.720Z,57.40
2019-03-13T11:47:46.844Z,57.60
2019-03-13T11:50:33.618Z,57.50
2019-03-13T11:53:03.895Z,57.50
2019-03-13T11:55:36.730Z,56.50
2019-03-13T11:58:12.322Z,55.90
2019-03-13T12:00:59.298Z,55.80
2019-03-13T12:03:41.576Z,56.30
2019-03-13T12:06:26.661Z,54.90
2019-03-13T12:09:02.850Z,53.70
2019-03-13T12:11:44.869Z,54.20
2019-03-13T12:14:23.942Z,55.00
2019-03-13T12:16:54.140Z,55.00
2019-03-13T12:19:27.131Z,55.00
2019-03-13T12:22:06.313Z,56.00
2019-03-13T12:24:55.669Z,57.20
2019-03-13T12:27:32.109Z,57.30
2019-03-13T12:30:18.735Z,57.30
2019-03-13T12:32:54.938Z,56.30
2019-03-13T12:35:31.027Z,53.80
2019-03-13T12:38:03.064Z,54.60
2019-03-13T12:40:38.910Z,54.70
2019-03-13T12:43:14.752Z,54.40
2019-03-13T12:46:01.103Z,54.50
2019-03-13T12:48:47.644Z,52.50
2019-03-13T12:51:29.644Z,51.80
2019-03-13T12:54:02.494Z,47.50
2019-03-13T12:56:38.449Z,46.80
2019-03-13T12:59:20.178Z,45.60
2019-03-13T13:01:50.344Z,42.80
2019-03-13T13:04:20.441Z,40.00
2019-03-13T13:07:06.919Z,41.60
2019-03-13T13:09:48.636Z,40.70
2019-03-13T13:12:24.713Z,39.30
2019-03-13T13:14:57.734Z,41.30
2019-03-13T13:17:39.968Z,42.10
2019-03-13T13:20:11.565Z,42.50
2019-03-13T13:22:40.006Z,40.70
2019-03-13T13:25:10.195Z,38.60
2019-03-13T13:27:38.631Z,36.00
2019-03-13T13:30:16.118Z,35.80
2019-03-13T13:32:44.566Z,37.60
2019-03-13T13:35:13.093Z,39.70
2019-03-13T13:37:41.527Z,41.90
2019-03-13T13:40:12.659Z,40.40
2019-03-13T13:42:42.096Z,42.70
2019-03-13T13:45:16.747Z,36.20
2019-03-13T13:47:45.354Z,36.50
2019-03-13T13:50:13.872Z,38.00
2019-03-13T13:52:42.384Z,39.10
2019-03-13T13:55:10.916Z,39.30
2019-03-13T13:57:39.381Z,38.90
2019-03-13T14:00:10.986Z,38.40
2019-03-13T14:02:39.489Z,35.00
2019-03-13T14:05:07.941Z,35.60
2019-03-13T14:07:36.464Z,38.90
2019-03-13T14:10:07.937Z,40.50
2019-03-13T14:12:36.406Z,42.50
2019-03-13T14:15:08.246Z,42.60
2019-03-13T14:17:36.716Z,43.60
2019-03-13T14:20:15.664Z,45.00
2019-03-13T14:22:44.119Z,45.50
2019-03-13T14:25:14.025Z,46.20
2019-03-13T14:27:42.505Z,46.90
2019-03-13T14:30:19.160Z,46.00
2019-03-13T14:32:47.618Z,47.70
2019-03-13T14:35:16.208Z,46.70
2019-03-13T14:37:44.741Z,46.20
2019-03-13T14:40:20.609Z,46.40
2019-03-13T14:42:49.042Z,45.80
2019-03-13T14:45:20.418Z,45.10
2019-03-13T14:47:49.115Z,44.80
2019-03-13T14:50:19.222Z,45.60
2019-03-13T14:52:47.702Z,46.30
2019-03-13T14:55:17.255Z,47.80
2019-03-13T14:57:45.891Z,48.50
2019-03-13T15:00:22.994Z,49.50
2019-03-13T15:02:51.516Z,50.00
2019-03-13T15:05:20.046Z,50.10
2019-03-13T15:07:48.509Z,50.90
2019-03-13T15:10:20.834Z,51.60
2019-03-13T15:12:49.507Z,52.40
2019-03-13T15:15:19.568Z,52.40
2019-03-13T15:17:48.069Z,52.30
2019-03-13T15:20:21.759Z,52.80
2019-03-13T15:22:50.223Z,52.70
2019-03-13T15:25:18.821Z,53.00
2019-03-13T15:27:47.292Z,53.40
2019-03-13T15:30:18.275Z,53.20
2019-03-13T15:32:46.714Z,53.70
2019-03-13T15:35:15.149Z,53.00
2019-03-13T15:37:43.609Z,53.50
2019-03-13T15:40:32.899Z,53.40
2019-03-13T15:43:01.333Z,53.40
2019-03-13T15:45:32.835Z,53.40
2019-03-13T15:48:01.269Z,53.10
2019-03-13T15:50:29.700Z,53.50
2019-03-13T15:52:58.127Z,53.20
2019-03-13T15:55:26.757Z,53.20
2019-03-13T15:57:55.209Z,53.90
2019-03-13T16:00:28.453Z,54.50
2019-03-13T16:02:56.913Z,54.40
2019-03-13T16:05:25.439Z,54.30
2019-03-13T16:07:53.933Z,54.40
2019-03-13T16:10:23.015Z,54.50
2019-03-13T16:12:53.109Z,53.70
2019-03-13T16:15:24.150Z,53.60
2019-03-13T16:17:52.572Z,53.90
2019-03-13T16:20:21.200Z,54.60
2019-03-13T16:22:57.569Z,54.90
2019-03-13T16:25:26.001Z,54.70
2019-03-13T16:27:54.422Z,54.70
2019-03-13T16:30:25.749Z,54.60
2019-03-13T16:32:54.211Z,55.00
2019-03-13T16:35:22.639Z,55.30
2019-03-13T16:37:51.090Z,55.50
2019-03-13T16:40:38.940Z,55.10
2019-03-13T16:43:07.420Z,55.40
2019-03-13T16:45:35.852Z,56.00
2019-03-13T16:48:04.920Z,55.60
2019-03-13T16:50:38.273Z,55.90
2019-03-13T16:53:06.766Z,56.20
2019-03-13T16:55:35.276Z,56.50
2019-03-13T16:58:03.747Z,56.60
2019-03-13T17:00:33.124Z,56.90
2019-03-13T17:03:01.575Z,56.60
2019-03-13T17:05:30.019Z,56.10
2019-03-13T17:07:58.488Z,55.80
2019-03-13T17:10:30.289Z,56.10
2019-03-13T17:12:58.733Z,56.10
2019-03-13T17:15:27.164Z,56.00
2019-03-13T17:17:55.673Z,56.60
2019-03-13T17:20:38.540Z,56.40
2019-03-13T17:23:06.963Z,56.10
2019-03-13T17:25:35.391Z,56.00
2019-03-13T17:28:03.892Z,56.20
2019-03-13T17:30:32.759Z,56.30
2019-03-13T17:33:01.423Z,56.30
2019-03-13T17:35:29.910Z,56.00
2019-03-13T17:37:58.346Z,56.00
2019-03-13T17:40:30.919Z,55.30
2019-03-13T17:43:11.699Z,55.60
2019-03-13T17:45:40.128Z,55.30
2019-03-13T17:48:08.549Z,55.70
2019-03-13T17:50:36.973Z,55.40
2019-03-13T17:53:05.479Z,55.60
2019-03-13T17:55:33.907Z,55.60
2019-03-13T17:58:02.345Z,55.60
2019-03-13T18:00:55.818Z,56.00
2019-03-13T18:03:24.719Z,55.90
2019-03-13T18:06:12.485Z,55.60
2019-03-13T18:08:40.908Z,55.40
2019-03-13T18:11:09.345Z,55.80
2019-03-13T18:13:37.773Z,56.20
2019-03-13T18:16:06.273Z,56.80
2019-03-13T18:18:34.700Z,56.80
2019-03-13T18:21:03.160Z,56.40
2019-03-13T18:23:31.584Z,56.40
2019-03-13T18:26:00.032Z,56.20
2019-03-13T18:28:28.510Z,56.50
2019-03-13T18:30:56.967Z,56.50
2019-03-13T18:33:25.480Z,56.90
2019-03-13T18:35:53.921Z,57.50
2019-03-13T18:38:22.339Z,57.30
2019-03-13T18:40:50.831Z,57.60
2019-03-13T18:43:19.315Z,57.50
2019-03-13T18:45:47.768Z,58.00
2019-03-13T18:48:16.208Z,58.60
2019-03-13T18:50:44.626Z,58.50
2019-03-13T18:53:13.057Z,59.50
2019-03-13T18:55:41.480Z,59.40
2019-03-13T18:58:09.916Z,59.50
2019-03-13T19:00:38.414Z,59.50
2019-03-13T19:03:07.989Z,59.80
2019-03-13T19:05:37.670Z,59.90
2019-03-13T19:08:27.059Z,60.60
2019-03-13T19:10:55.702Z,60.00
2019-03-13T19:13:24.429Z,60.00
2019-03-13T19:15:52.847Z,60.40
2019-03-13T19:18:21.284Z,60.90
2019-03-13T19:20:49.711Z,61.00
2019-03-13T19:23:18.152Z,61.40
2019-03-13T19:25:46.574Z,61.50
2019-03-13T19:28:15.016Z,61.00
2019-03-13T19:30:43.446Z,61.70
2019-03-13T19:33:11.884Z,62.00
2019-03-13T19:35:40.328Z,62.30
2019-03-13T19:38:13.843Z,62.80
2019-03-13T19:40:42.270Z,62.90
2019-03-13T19:43:10.751Z,63.20
2019-03-13T19:45:41.514Z,63.20
2019-03-13T19:48:10.185Z,63.90
2019-03-13T19:50:38.770Z,65.00
2019-03-13T19:53:07.247Z,64.20
2019-03-13T19:55:35.743Z,64.70
2019-03-13T19:58:04.257Z,65.30
2019-03-13T20:00:32.681Z,66.40
2019-03-13T20:03:06.963Z,67.10
2019-03-13T20:05:44.944Z,67.30
2019-03-13T20:08:05.640Z,67.60
2019-03-13T20:10:34.131Z,68.40
2019-03-13T20:13:02.555Z,69.00
2019-03-13T20:15:32.514Z,69.80
2019-03-13T20:18:00.980Z,70.60
2019-03-13T20:20:29.424Z,71.20
2019-03-13T20:23:03.900Z,71.30
2019-03-13T20:25:32.415Z,71.40
2019-03-13T20:28:00.866Z,72.00
2019-03-13T20:30:29.292Z,74.50
2019-03-13T20:32:57.717Z,78.90
2019-03-13T20:35:26.221Z,79.90
2019-03-13T20:37:54.657Z,81.40
2019-03-13T20:40:25.072Z,81.10
2019-03-13T20:42:53.513Z,82.00
2019-03-13T20:45:24.452Z,79.80
2019-03-13T20:47:53.432Z,79.60
2019-03-13T20:50:35.307Z,80.20
2019-03-13T20:52:52.455Z,79.70
2019-03-13T20:55:22.028Z,80.30
2019-03-13T20:57:50.475Z,78.90
2019-03-13T21:00:22.035Z,78.80
2019-03-13T21:02:50.828Z,78.80
2019-03-13T21:05:19.392Z,79.50
2019-03-13T21:08:07.320Z,78.50
2019-03-13T21:10:35.809Z,78.70
2019-03-13T21:13:04.307Z,78.60
2019-03-13T21:15:32.729Z,78.00
2019-03-13T21:18:01.193Z,78.30
2019-03-13T21:20:29.619Z,78.10
2019-03-13T21:22:58.640Z,78.20
2019-03-13T21:25:27.568Z,78.20
2019-03-13T21:28:15.391Z,78.80
2019-03-13T21:30:43.851Z,78.50
2019-03-13T21:33:12.323Z,78.20
2019-03-13T21:35:40.768Z,78.60
2019-03-13T21:38:09.217Z,79.10
2019-03-13T21:40:39.248Z,79.70
2019-03-13T21:43:07.726Z,79.60
2019-03-13T21:45:41.400Z,79.10
2019-03-13T21:48:06.452Z,79.50
2019-03-13T21:50:34.997Z,79.90
2019-03-13T21:53:03.662Z,80.40
2019-03-13T21:55:32.254Z,80.10
2019-03-13T21:58:00.890Z,80.10
2019-03-13T22:00:29.559Z,80.60
2019-03-13T22:02:58.215Z,80.70
2019-03-13T22:05:27.474Z,80.50
2019-03-13T22:07:56.410Z,80.50
2019-03-13T22:10:25.006Z,80.50
2019-03-13T22:12:53.676Z,80.50
2019-03-13T22:15:23.910Z,80.50
2019-03-13T22:17:52.583Z,80.60
2019-03-13T22:20:21.351Z,80.80
2019-03-13T22:22:49.907Z,81.00
2019-03-13T22:25:19.840Z,81.00
2019-03-13T22:27:48.604Z,81.20
2019-03-13T22:30:42.216Z,81.30
2019-03-13T22:33:10.933Z,81.30
2019-03-13T22:35:39.607Z,81.30
2019-03-13T22:38:10.791Z,81.40
2019-03-13T22:40:39.295Z,81.30
2019-03-13T22:43:20.117Z,81.40
2019-03-13T22:45:50.117Z,81.60
2019-03-13T22:48:18.625Z,82.20
2019-03-13T22:50:47.180Z,81.70
2019-03-13T22:53:15.656Z,82.10
2019-03-13T22:55:44.112Z,81.90
2019-03-13T22:58:12.567Z,81.70
2019-03-13T23:00:51.280Z,82.30
2019-03-13T23:03:21.983Z,82.60
2019-03-13T23:05:50.774Z,82.70
2019-03-13T23:08:19.437Z,82.40
2019-03-13T23:10:48.115Z,82.60
2019-03-13T23:13:17.518Z,82.80
2019-03-13T23:15:47.438Z,82.60
2019-03-13T23:18:18.282Z,83.00
2019-03-13T23:20:46.511Z,83.20
2019-03-13T23:23:15.057Z,83.30
2019-03-13T23:25:43.599Z,83.60
2019-03-13T23:28:12.112Z,83.60
2019-03-13T23:30:40.625Z,83.60
2019-03-13T23:33:09.155Z,83.30
2019-03-13T23:35:37.669Z,83.20
2019-03-13T23:38:06.210Z,83.80
2019-03-13T23:40:37.019Z,84.00
2019-03-13T23:43:05.638Z,83.80
2019-03-13T23:45:34.203Z,84.30
2019-03-13T23:48:02.985Z,84.10
2019-03-13T23:50:33.097Z,84.20
2019-03-13T23:53:03.138Z,84.50
2019-03-13T23:55:31.649Z,84.20
2019-03-13T23:58:00.104Z,84.90
